Aeroporto :
LOGIN :

Iscrizione | Disclaimer

   EN    FR    IT 

 










Sommario :    VFR   VFR Marginale   IFR   IFR Intensivo   IFR Molto Intensivo
Visibilità : 
Base nubi : 
>= 8 km
>= 3000ft
5 / 8 km
1000 / 3000 ft
1500m / 5 km
500 / 1000 ft
800 / 1500m
200 / 500 ft
< 800m
< 200 ft
Simboli :   Temporali  Nebbia  Neve Forte  Precipitazioni Forti  Vento > 20 kt
SIGMETs :   Varie  Temporali  Ghiacco  Turbolenza  Onda orograficha  Ceneri Vulcaniche







- Altitudine del aeroporto : 1106 ft
- Carte del aeroporto


LFSO - Nancy / Ochey

ULTIMO METAR :
  • 211730Z AUTO 08007KT 050V110 CAVOK 22/07 Q1025

METARs OBSOLETI :
  • 211700Z AUTO 07008KT CAVOK 23/07 Q1025
  • 211630Z AUTO 06009KT CAVOK 23/07 Q1025
  • 211600Z AUTO 07010KT CAVOK 23/08 Q1025 NOSIG
  • 211530Z AUTO 05009KT 020V080 CAVOK 23/08 Q1025 NOSIG
  • 211500Z AUTO 07009KT 020V120 CAVOK 24/08 Q1026 NOSIG

TAF TAF LFSO
Valido dal 21 a 15 ore il 22 a 15 ore UTC


211400Z 2115/2215 08008KT CAVOK
Nessun NOTAM noto per questo aeroporto.



MetMap, La meteo Aeronautica in un colpo d'occhio ! - Copyright ORBIFLY Dicembre 2007 - Disclaimer

ORBIFLY MET'MAP TEAM :

Programmazione e sviluppo : Alexandra Zaïnal
Concezione e sviluppo : Baudouin d'Aumeries
Co-Programmazione e sviluppo : Marc-Olivier Méhu
Supporto tecnico e logistico : Manuel Goepfert
Aiuto per la traduzione : Arnaldo La Scala

Contatto : metmap@orbifly.com




FONTI E CREDITI :

   NOAA